sensor_id;sensor_type;location;lat;lon;timestamp;P1;durP1;ratioP1;P2;durP2;ratioP2
21848;SDS011;11089;49.852;19.700;2023-02-14T00:00:30;31.30;;;15.10;;
21848;SDS011;11089;49.852;19.700;2023-02-14T00:03:30;33.58;;;14.75;;
21848;SDS011;11089;49.852;19.700;2023-02-14T00:06:32;34.08;;;15.50;;
21848;SDS011;11089;49.852;19.700;2023-02-14T00:09:34;30.50;;;14.10;;
21848;SDS011;11089;49.852;19.700;2023-02-14T00:12:35;29.17;;;13.68;;
21848;SDS011;11089;49.852;19.700;2023-02-14T00:15:36;25.45;;;12.85;;
21848;SDS011;11089;49.852;19.700;2023-02-14T00:18:37;29.27;;;12.70;;
21848;SDS011;11089;49.852;19.700;2023-02-14T00:21:52;30.95;;;14.27;;
21848;SDS011;11089;49.852;19.700;2023-02-14T00:24:54;33.70;;;15.48;;
21848;SDS011;11089;49.852;19.700;2023-02-14T00:27:55;36.47;;;15.85;;
21848;SDS011;11089;49.852;19.700;2023-02-14T00:30:56;32.38;;;14.98;;
21848;SDS011;11089;49.852;19.700;2023-02-14T00:33:57;34.92;;;15.20;;
21848;SDS011;11089;49.852;19.700;2023-02-14T00:36:58;37.08;;;15.88;;
21848;SDS011;11089;49.852;19.700;2023-02-14T00:39:59;37.58;;;16.85;;
21848;SDS011;11089;49.852;19.700;2023-02-14T00:43:00;36.80;;;16.95;;
21848;SDS011;11089;49.852;19.700;2023-02-14T00:46:01;41.47;;;16.90;;
21848;SDS011;11089;49.852;19.700;2023-02-14T00:49:02;35.05;;;16.77;;
21848;SDS011;11089;49.852;19.700;2023-02-14T00:52:03;35.85;;;15.77;;
21848;SDS011;11089;49.852;19.700;2023-02-14T00:55:04;35.72;;;15.68;;
21848;SDS011;11089;49.852;19.700;2023-02-14T00:58:05;37.00;;;15.93;;
21848;SDS011;11089;49.852;19.700;2023-02-14T01:01:06;35.30;;;14.88;;
21848;SDS011;11089;49.852;19.700;2023-02-14T01:04:08;34.65;;;15.73;;
21848;SDS011;11089;49.852;19.700;2023-02-14T01:07:09;34.47;;;15.00;;
21848;SDS011;11089;49.852;19.700;2023-02-14T01:10:10;37.08;;;16.45;;
21848;SDS011;11089;49.852;19.700;2023-02-14T01:13:11;40.95;;;16.13;;
21848;SDS011;11089;49.852;19.700;2023-02-14T01:16:15;40.70;;;17.48;;
21848;SDS011;11089;49.852;19.700;2023-02-14T01:19:18;33.92;;;15.52;;
21848;SDS011;11089;49.852;19.700;2023-02-14T01:22:19;41.85;;;17.27;;
21848;SDS011;11089;49.852;19.700;2023-02-14T01:25:20;41.22;;;17.40;;
21848;SDS011;11089;49.852;19.700;2023-02-14T01:28:21;42.33;;;17.38;;
21848;SDS011;11089;49.852;19.700;2023-02-14T01:31:23;40.38;;;16.77;;
21848;SDS011;11089;49.852;19.700;2023-02-14T01:37:26;37.45;;;16.25;;
21848;SDS011;11089;49.852;19.700;2023-02-14T01:40:27;36.53;;;17.02;;
21848;SDS011;11089;49.852;19.700;2023-02-14T01:43:28;44.17;;;17.60;;
21848;SDS011;11089;49.852;19.700;2023-02-14T01:46:30;37.28;;;16.92;;
21848;SDS011;11089;49.852;19.700;2023-02-14T01:49:38;41.35;;;17.88;;
21848;SDS011;11089;49.852;19.700;2023-02-14T01:52:54;40.05;;;17.05;;
21848;SDS011;11089;49.852;19.700;2023-02-14T01:56:04;36.78;;;16.58;;
21848;SDS011;11089;49.852;19.700;2023-02-14T01:59:09;38.00;;;16.50;;
21848;SDS011;11089;49.852;19.700;2023-02-14T02:02:16;35.80;;;16.63;;
21848;SDS011;11089;49.852;19.700;2023-02-14T02:05:22;35.97;;;15.98;;
21848;SDS011;11089;49.852;19.700;2023-02-14T02:08:23;36.95;;;16.48;;
21848;SDS011;11089;49.852;19.700;2023-02-14T02:11:25;40.20;;;17.13;;
21848;SDS011;11089;49.852;19.700;2023-02-14T02:14:26;38.95;;;16.00;;
21848;SDS011;11089;49.852;19.700;2023-02-14T02:24:20;39.13;;;17.25;;
21848;SDS011;11089;49.852;19.700;2023-02-14T02:27:44;41.13;;;17.15;;
21848;SDS011;11089;49.852;19.700;2023-02-14T02:34:15;35.58;;;16.25;;
21848;SDS011;11089;49.852;19.700;2023-02-14T02:43:49;52.67;;;22.38;;
21848;SDS011;11089;49.852;19.700;2023-02-14T02:46:59;49.67;;;22.17;;
21848;SDS011;11089;49.852;19.700;2023-02-14T02:50:12;49.05;;;20.27;;
21848;SDS011;11089;49.852;19.700;2023-02-14T02:57:04;46.47;;;21.13;;
21848;SDS011;11089;49.852;19.700;2023-02-14T03:00:11;47.25;;;20.83;;
21848;SDS011;11089;49.852;19.700;2023-02-14T03:03:14;55.28;;;25.17;;
21848;SDS011;11089;49.852;19.700;2023-02-14T03:06:30;54.70;;;24.05;;
21848;SDS011;11089;49.852;19.700;2023-02-14T03:25:30;57.65;;;25.10;;
21848;SDS011;11089;49.852;19.700;2023-02-14T03:28:52;53.97;;;24.17;;
21848;SDS011;11089;49.852;19.700;2023-02-14T03:35:50;59.80;;;23.98;;
21848;SDS011;11089;49.852;19.700;2023-02-14T03:39:03;57.60;;;24.60;;
21848;SDS011;11089;49.852;19.700;2023-02-14T03:42:21;60.53;;;24.63;;
21848;SDS011;11089;49.852;19.700;2023-02-14T03:45:41;60.50;;;24.98;;
21848;SDS011;11089;49.852;19.700;2023-02-14T03:48:46;59.47;;;25.60;;
21848;SDS011;11089;49.852;19.700;2023-02-14T03:51:49;54.55;;;23.88;;
21848;SDS011;11089;49.852;19.700;2023-02-14T03:54:54;54.00;;;24.17;;
21848;SDS011;11089;49.852;19.700;2023-02-14T03:58:01;49.53;;;21.58;;
21848;SDS011;11089;49.852;19.700;2023-02-14T04:04:25;55.80;;;24.60;;
21848;SDS011;11089;49.852;19.700;2023-02-14T04:07:30;58.35;;;23.85;;
21848;SDS011;11089;49.852;19.700;2023-02-14T04:10:30;58.47;;;23.98;;
21848;SDS011;11089;49.852;19.700;2023-02-14T04:13:31;54.20;;;23.60;;
21848;SDS011;11089;49.852;19.700;2023-02-14T04:16:36;51.85;;;23.27;;
21848;SDS011;11089;49.852;19.700;2023-02-14T04:19:51;52.47;;;23.38;;
21848;SDS011;11089;49.852;19.700;2023-02-14T04:22:52;51.88;;;22.55;;
21848;SDS011;11089;49.852;19.700;2023-02-14T04:25:53;52.50;;;22.90;;
21848;SDS011;11089;49.852;19.700;2023-02-14T04:28:54;52.08;;;23.23;;
21848;SDS011;11089;49.852;19.700;2023-02-14T04:31:55;48.72;;;22.58;;
21848;SDS011;11089;49.852;19.700;2023-02-14T04:34:56;49.25;;;22.15;;
21848;SDS011;11089;49.852;19.700;2023-02-14T04:37:57;51.67;;;22.17;;
21848;SDS011;11089;49.852;19.700;2023-02-14T04:40:58;51.28;;;22.02;;
21848;SDS011;11089;49.852;19.700;2023-02-14T04:43:59;52.42;;;23.48;;
21848;SDS011;11089;49.852;19.700;2023-02-14T04:47:00;48.92;;;21.45;;
21848;SDS011;11089;49.852;19.700;2023-02-14T04:50:01;51.17;;;22.15;;
21848;SDS011;11089;49.852;19.700;2023-02-14T04:53:02;47.15;;;21.17;;
21848;SDS011;11089;49.852;19.700;2023-02-14T04:56:03;46.97;;;21.38;;
21848;SDS011;11089;49.852;19.700;2023-02-14T04:59:04;54.58;;;22.00;;
21848;SDS011;11089;49.852;19.700;2023-02-14T05:02:05;50.33;;;21.90;;
21848;SDS011;11089;49.852;19.700;2023-02-14T05:05:06;57.22;;;23.13;;
21848;SDS011;11089;49.852;19.700;2023-02-14T05:08:07;52.53;;;22.00;;
21848;SDS011;11089;49.852;19.700;2023-02-14T05:11:08;51.65;;;22.73;;
21848;SDS011;11089;49.852;19.700;2023-02-14T05:14:09;50.25;;;22.60;;
21848;SDS011;11089;49.852;19.700;2023-02-14T05:17:10;50.70;;;21.92;;
21848;SDS011;11089;49.852;19.700;2023-02-14T05:20:11;50.85;;;23.40;;
21848;SDS011;11089;49.852;19.700;2023-02-14T05:23:12;55.50;;;24.70;;
21848;SDS011;11089;49.852;19.700;2023-02-14T05:26:13;53.33;;;23.58;;
21848;SDS011;11089;49.852;19.700;2023-02-14T05:29:14;51.65;;;23.42;;
21848;SDS011;11089;49.852;19.700;2023-02-14T05:32:15;53.75;;;23.33;;
21848;SDS011;11089;49.852;19.700;2023-02-14T05:35:16;58.78;;;25.13;;
21848;SDS011;11089;49.852;19.700;2023-02-14T05:38:17;57.67;;;24.95;;
21848;SDS011;11089;49.852;19.700;2023-02-14T05:41:18;53.88;;;23.60;;
21848;SDS011;11089;49.852;19.700;2023-02-14T05:44:19;55.92;;;24.05;;
21848;SDS011;11089;49.852;19.700;2023-02-14T05:47:20;51.85;;;24.50;;
21848;SDS011;11089;49.852;19.700;2023-02-14T05:50:21;59.45;;;25.92;;
21848;SDS011;11089;49.852;19.700;2023-02-14T05:53:22;74.20;;;28.83;;
21848;SDS011;11089;49.852;19.700;2023-02-14T05:56:23;82.22;;;31.85;;
21848;SDS011;11089;49.852;19.700;2023-02-14T05:59:24;68.15;;;28.45;;
21848;SDS011;11089;49.852;19.700;2023-02-14T06:02:25;67.72;;;28.75;;
21848;SDS011;11089;49.852;19.700;2023-02-14T06:05:26;56.72;;;26.02;;
21848;SDS011;11089;49.852;19.700;2023-02-14T06:08:27;67.18;;;26.90;;
21848;SDS011;11089;49.852;19.700;2023-02-14T06:11:28;76.10;;;31.13;;
21848;SDS011;11089;49.852;19.700;2023-02-14T06:14:29;73.20;;;30.70;;
21848;SDS011;11089;49.852;19.700;2023-02-14T06:17:30;75.68;;;32.38;;
21848;SDS011;11089;49.852;19.700;2023-02-14T06:20:30;61.75;;;27.60;;
21848;SDS011;11089;49.852;19.700;2023-02-14T06:23:32;59.67;;;25.00;;
21848;SDS011;11089;49.852;19.700;2023-02-14T06:26:33;63.65;;;26.70;;
21848;SDS011;11089;49.852;19.700;2023-02-14T06:29:35;65.40;;;26.42;;
21848;SDS011;11089;49.852;19.700;2023-02-14T06:32:36;66.72;;;27.85;;
21848;SDS011;11089;49.852;19.700;2023-02-14T06:35:37;61.67;;;26.92;;
21848;SDS011;11089;49.852;19.700;2023-02-14T06:38:38;61.13;;;24.90;;
21848;SDS011;11089;49.852;19.700;2023-02-14T06:41:39;56.78;;;25.30;;
21848;SDS011;11089;49.852;19.700;2023-02-14T06:44:39;63.20;;;25.52;;
21848;SDS011;11089;49.852;19.700;2023-02-14T06:47:40;50.10;;;21.50;;
21848;SDS011;11089;49.852;19.700;2023-02-14T06:50:41;54.63;;;22.48;;
21848;SDS011;11089;49.852;19.700;2023-02-14T06:53:42;52.25;;;21.60;;
21848;SDS011;11089;49.852;19.700;2023-02-14T06:56:43;50.22;;;21.85;;
21848;SDS011;11089;49.852;19.700;2023-02-14T06:59:44;51.78;;;21.27;;
21848;SDS011;11089;49.852;19.700;2023-02-14T07:02:45;51.25;;;20.80;;
21848;SDS011;11089;49.852;19.700;2023-02-14T07:05:46;44.45;;;19.88;;
21848;SDS011;11089;49.852;19.700;2023-02-14T07:08:47;51.17;;;23.23;;
21848;SDS011;11089;49.852;19.700;2023-02-14T07:11:48;61.47;;;28.52;;
21848;SDS011;11089;49.852;19.700;2023-02-14T07:14:49;57.78;;;26.08;;
21848;SDS011;11089;49.852;19.700;2023-02-14T07:17:50;68.40;;;29.48;;
21848;SDS011;11089;49.852;19.700;2023-02-14T07:20:51;56.17;;;25.98;;
21848;SDS011;11089;49.852;19.700;2023-02-14T07:23:52;52.88;;;23.63;;
21848;SDS011;11089;49.852;19.700;2023-02-14T07:26:53;54.42;;;23.58;;
21848;SDS011;11089;49.852;19.700;2023-02-14T07:29:54;67.00;;;28.35;;
21848;SDS011;11089;49.852;19.700;2023-02-14T07:32:55;62.28;;;26.30;;
21848;SDS011;11089;49.852;19.700;2023-02-14T07:35:56;146.75;;;49.38;;
21848;SDS011;11089;49.852;19.700;2023-02-14T07:38:57;75.05;;;30.63;;
21848;SDS011;11089;49.852;19.700;2023-02-14T07:41:58;95.18;;;35.33;;
21848;SDS011;11089;49.852;19.700;2023-02-14T07:44:59;61.50;;;23.80;;
21848;SDS011;11089;49.852;19.700;2023-02-14T07:48:00;49.75;;;20.80;;
21848;SDS011;11089;49.852;19.700;2023-02-14T07:51:01;39.08;;;18.27;;
21848;SDS011;11089;49.852;19.700;2023-02-14T07:54:02;48.92;;;20.13;;
21848;SDS011;11089;49.852;19.700;2023-02-14T07:57:04;39.65;;;18.33;;
21848;SDS011;11089;49.852;19.700;2023-02-14T08:00:05;35.10;;;16.73;;
21848;SDS011;11089;49.852;19.700;2023-02-14T08:03:07;40.33;;;16.77;;
21848;SDS011;11089;49.852;19.700;2023-02-14T08:06:07;49.63;;;19.55;;
21848;SDS011;11089;49.852;19.700;2023-02-14T08:09:09;61.28;;;26.15;;
21848;SDS011;11089;49.852;19.700;2023-02-14T08:12:10;43.25;;;18.50;;
21848;SDS011;11089;49.852;19.700;2023-02-14T08:15:37;51.05;;;21.50;;
21848;SDS011;11089;49.852;19.700;2023-02-14T08:18:51;50.22;;;21.20;;
21848;SDS011;11089;49.852;19.700;2023-02-14T08:21:52;45.25;;;20.73;;
21848;SDS011;11089;49.852;19.700;2023-02-14T08:24:53;45.47;;;21.38;;
21848;SDS011;11089;49.852;19.700;2023-02-14T08:27:54;45.80;;;18.95;;
21848;SDS011;11089;49.852;19.700;2023-02-14T08:30:55;45.83;;;21.40;;
21848;SDS011;11089;49.852;19.700;2023-02-14T08:33:56;46.13;;;19.40;;
21848;SDS011;11089;49.852;19.700;2023-02-14T08:36:56;42.75;;;19.23;;
21848;SDS011;11089;49.852;19.700;2023-02-14T08:39:57;45.05;;;19.00;;
21848;SDS011;11089;49.852;19.700;2023-02-14T08:42:58;47.22;;;20.10;;
21848;SDS011;11089;49.852;19.700;2023-02-14T08:45:59;43.75;;;19.15;;
21848;SDS011;11089;49.852;19.700;2023-02-14T08:49:00;58.30;;;22.52;;
21848;SDS011;11089;49.852;19.700;2023-02-14T08:52:01;42.22;;;18.80;;
21848;SDS011;11089;49.852;19.700;2023-02-14T08:55:02;45.83;;;20.00;;
21848;SDS011;11089;49.852;19.700;2023-02-14T08:58:04;48.60;;;20.88;;
21848;SDS011;11089;49.852;19.700;2023-02-14T09:01:07;44.30;;;19.65;;
21848;SDS011;11089;49.852;19.700;2023-02-14T09:04:09;49.13;;;20.02;;
21848;SDS011;11089;49.852;19.700;2023-02-14T09:07:11;47.88;;;22.05;;
21848;SDS011;11089;49.852;19.700;2023-02-14T09:10:12;50.42;;;22.33;;
21848;SDS011;11089;49.852;19.700;2023-02-14T09:13:13;83.03;;;34.10;;
21848;SDS011;11089;49.852;19.700;2023-02-14T09:16:14;63.90;;;26.88;;
21848;SDS011;11089;49.852;19.700;2023-02-14T09:19:16;76.32;;;30.50;;
21848;SDS011;11089;49.852;19.700;2023-02-14T09:22:17;64.47;;;26.98;;
21848;SDS011;11089;49.852;19.700;2023-02-14T09:25:19;54.25;;;23.65;;
21848;SDS011;11089;49.852;19.700;2023-02-14T09:28:20;59.55;;;23.60;;
21848;SDS011;11089;49.852;19.700;2023-02-14T09:31:22;49.28;;;22.15;;
21848;SDS011;11089;49.852;19.700;2023-02-14T09:34:24;46.88;;;20.73;;
21848;SDS011;11089;49.852;19.700;2023-02-14T09:37:26;48.42;;;21.55;;
21848;SDS011;11089;49.852;19.700;2023-02-14T09:40:27;45.15;;;19.35;;
21848;SDS011;11089;49.852;19.700;2023-02-14T09:43:32;49.58;;;20.67;;
21848;SDS011;11089;49.852;19.700;2023-02-14T09:46:51;48.28;;;19.55;;
21848;SDS011;11089;49.852;19.700;2023-02-14T09:49:55;35.95;;;17.55;;
21848;SDS011;11089;49.852;19.700;2023-02-14T09:53:03;38.15;;;16.92;;
21848;SDS011;11089;49.852;19.700;2023-02-14T09:56:47;40.90;;;17.80;;
21848;SDS011;11089;49.852;19.700;2023-02-14T10:13:09;43.58;;;19.42;;
21848;SDS011;11089;49.852;19.700;2023-02-14T10:19:33;42.67;;;18.83;;
21848;SDS011;11089;49.852;19.700;2023-02-14T10:22:49;39.15;;;18.02;;
21848;SDS011;11089;49.852;19.700;2023-02-14T10:26:11;42.78;;;17.73;;
21848;SDS011;11089;49.852;19.700;2023-02-14T10:29:24;36.58;;;16.20;;
21848;SDS011;11089;49.852;19.700;2023-02-14T10:32:35;41.80;;;18.08;;
21848;SDS011;11089;49.852;19.700;2023-02-14T10:35:45;54.97;;;22.98;;
21848;SDS011;11089;49.852;19.700;2023-02-14T10:45:50;38.97;;;17.35;;
21848;SDS011;11089;49.852;19.700;2023-02-14T10:59:01;41.53;;;18.65;;
21848;SDS011;11089;49.852;19.700;2023-02-14T11:05:43;44.50;;;20.45;;
21848;SDS011;11089;49.852;19.700;2023-02-14T11:08:46;41.58;;;19.13;;
21848;SDS011;11089;49.852;19.700;2023-02-14T11:11:54;46.58;;;19.85;;
21848;SDS011;11089;49.852;19.700;2023-02-14T11:18:19;41.17;;;19.38;;
21848;SDS011;11089;49.852;19.700;2023-02-14T11:21:21;42.53;;;19.63;;
21848;SDS011;11089;49.852;19.700;2023-02-14T11:24:30;43.35;;;21.30;;
21848;SDS011;11089;49.852;19.700;2023-02-14T11:27:36;40.72;;;20.30;;
21848;SDS011;11089;49.852;19.700;2023-02-14T11:33:41;43.15;;;21.00;;
21848;SDS011;11089;49.852;19.700;2023-02-14T11:36:43;43.70;;;19.70;;
21848;SDS011;11089;49.852;19.700;2023-02-14T11:39:44;39.30;;;17.83;;
21848;SDS011;11089;49.852;19.700;2023-02-14T11:42:45;37.38;;;16.27;;
21848;SDS011;11089;49.852;19.700;2023-02-14T11:45:47;45.40;;;19.20;;
21848;SDS011;11089;49.852;19.700;2023-02-14T11:48:58;41.90;;;20.63;;
21848;SDS011;11089;49.852;19.700;2023-02-14T11:52:08;38.42;;;18.77;;
21848;SDS011;11089;49.852;19.700;2023-02-14T11:58:36;31.35;;;14.50;;
21848;SDS011;11089;49.852;19.700;2023-02-14T12:01:39;31.58;;;14.63;;
21848;SDS011;11089;49.852;19.700;2023-02-14T12:04:40;30.15;;;13.77;;
21848;SDS011;11089;49.852;19.700;2023-02-14T12:07:44;32.08;;;15.20;;
21848;SDS011;11089;49.852;19.700;2023-02-14T12:11:04;31.48;;;15.60;;
21848;SDS011;11089;49.852;19.700;2023-02-14T12:14:21;30.30;;;14.07;;
21848;SDS011;11089;49.852;19.700;2023-02-14T12:17:28;27.48;;;13.30;;
21848;SDS011;11089;49.852;19.700;2023-02-14T12:20:37;30.50;;;14.02;;
21848;SDS011;11089;49.852;19.700;2023-02-14T12:23:51;28.20;;;13.30;;
21848;SDS011;11089;49.852;19.700;2023-02-14T12:30:14;25.85;;;13.10;;
21848;SDS011;11089;49.852;19.700;2023-02-14T12:33:22;24.77;;;12.43;;
21848;SDS011;11089;49.852;19.700;2023-02-14T12:39:56;29.33;;;14.85;;
21848;SDS011;11089;49.852;19.700;2023-02-14T12:43:15;30.58;;;13.98;;
21848;SDS011;11089;49.852;19.700;2023-02-14T13:02:59;27.77;;;14.30;;
21848;SDS011;11089;49.852;19.700;2023-02-14T13:06:21;27.73;;;14.40;;
21848;SDS011;11089;49.852;19.700;2023-02-14T13:12:58;32.83;;;14.27;;
21848;SDS011;11089;49.852;19.700;2023-02-14T13:16:22;26.83;;;14.05;;
21848;SDS011;11089;49.852;19.700;2023-02-14T13:19:52;33.33;;;15.55;;
21848;SDS011;11089;49.852;19.700;2023-02-14T13:23:11;31.95;;;15.07;;
21848;SDS011;11089;49.852;19.700;2023-02-14T13:26:29;40.67;;;19.35;;
21848;SDS011;11089;49.852;19.700;2023-02-14T13:29:57;45.72;;;20.60;;
21848;SDS011;11089;49.852;19.700;2023-02-14T13:33:02;37.25;;;17.13;;
21848;SDS011;11089;49.852;19.700;2023-02-14T13:36:20;36.55;;;16.33;;
21848;SDS011;11089;49.852;19.700;2023-02-14T13:39:33;32.75;;;15.30;;
21848;SDS011;11089;49.852;19.700;2023-02-14T13:45:51;34.65;;;16.50;;
21848;SDS011;11089;49.852;19.700;2023-02-14T13:48:54;42.97;;;18.85;;
21848;SDS011;11089;49.852;19.700;2023-02-14T13:51:58;33.03;;;16.35;;
21848;SDS011;11089;49.852;19.700;2023-02-14T13:55:05;30.10;;;16.33;;
21848;SDS011;11089;49.852;19.700;2023-02-14T13:58:16;33.78;;;15.80;;
21848;SDS011;11089;49.852;19.700;2023-02-14T14:04:47;31.05;;;14.27;;
21848;SDS011;11089;49.852;19.700;2023-02-14T14:07:48;31.95;;;14.43;;
21848;SDS011;11089;49.852;19.700;2023-02-14T14:14:27;35.10;;;14.73;;
21848;SDS011;11089;49.852;19.700;2023-02-14T14:24:00;31.38;;;15.68;;
21848;SDS011;11089;49.852;19.700;2023-02-14T14:27:17;39.88;;;17.38;;
21848;SDS011;11089;49.852;19.700;2023-02-14T14:30:31;36.72;;;17.65;;
21848;SDS011;11089;49.852;19.700;2023-02-14T14:33:33;34.30;;;15.95;;
21848;SDS011;11089;49.852;19.700;2023-02-14T14:36:34;39.17;;;15.52;;
21848;SDS011;11089;49.852;19.700;2023-02-14T14:39:35;33.45;;;17.30;;
21848;SDS011;11089;49.852;19.700;2023-02-14T14:42:39;31.98;;;15.98;;
21848;SDS011;11089;49.852;19.700;2023-02-14T14:45:40;27.60;;;14.20;;
21848;SDS011;11089;49.852;19.700;2023-02-14T14:48:46;30.10;;;14.73;;
21848;SDS011;11089;49.852;19.700;2023-02-14T14:51:53;32.47;;;16.45;;
21848;SDS011;11089;49.852;19.700;2023-02-14T14:54:56;28.38;;;13.57;;
21848;SDS011;11089;49.852;19.700;2023-02-14T14:58:00;33.13;;;15.40;;
21848;SDS011;11089;49.852;19.700;2023-02-14T15:01:07;28.80;;;14.70;;
21848;SDS011;11089;49.852;19.700;2023-02-14T15:04:24;31.40;;;15.43;;
21848;SDS011;11089;49.852;19.700;2023-02-14T15:07:36;36.50;;;18.67;;
21848;SDS011;11089;49.852;19.700;2023-02-14T15:10:37;35.88;;;18.00;;
21848;SDS011;11089;49.852;19.700;2023-02-14T15:13:42;38.13;;;17.60;;
21848;SDS011;11089;49.852;19.700;2023-02-14T15:16:49;34.60;;;17.23;;
21848;SDS011;11089;49.852;19.700;2023-02-14T15:20:01;39.78;;;18.33;;
21848;SDS011;11089;49.852;19.700;2023-02-14T15:23:14;44.92;;;22.17;;
21848;SDS011;11089;49.852;19.700;2023-02-14T15:26:21;48.28;;;23.05;;
21848;SDS011;11089;49.852;19.700;2023-02-14T15:29:29;38.15;;;17.38;;
21848;SDS011;11089;49.852;19.700;2023-02-14T15:32:33;37.28;;;18.02;;
21848;SDS011;11089;49.852;19.700;2023-02-14T15:35:37;37.47;;;18.05;;
21848;SDS011;11089;49.852;19.700;2023-02-14T15:38:43;39.92;;;19.33;;
21848;SDS011;11089;49.852;19.700;2023-02-14T15:41:44;36.03;;;17.15;;
21848;SDS011;11089;49.852;19.700;2023-02-14T15:44:45;35.15;;;16.50;;
21848;SDS011;11089;49.852;19.700;2023-02-14T15:47:53;37.92;;;19.05;;
21848;SDS011;11089;49.852;19.700;2023-02-14T15:50:56;41.40;;;18.98;;
21848;SDS011;11089;49.852;19.700;2023-02-14T15:53:59;37.47;;;18.55;;
21848;SDS011;11089;49.852;19.700;2023-02-14T15:57:04;45.33;;;21.73;;
21848;SDS011;11089;49.852;19.700;2023-02-14T16:00:13;58.53;;;30.45;;
21848;SDS011;11089;49.852;19.700;2023-02-14T16:03:20;49.80;;;24.42;;
21848;SDS011;11089;49.852;19.700;2023-02-14T16:06:33;48.78;;;23.92;;
21848;SDS011;11089;49.852;19.700;2023-02-14T16:09:37;53.70;;;24.83;;
21848;SDS011;11089;49.852;19.700;2023-02-14T16:12:39;55.88;;;26.88;;
21848;SDS011;11089;49.852;19.700;2023-02-14T16:18:58;57.03;;;26.58;;
21848;SDS011;11089;49.852;19.700;2023-02-14T16:21:59;45.20;;;22.80;;
21848;SDS011;11089;49.852;19.700;2023-02-14T16:25:00;39.35;;;19.38;;
21848;SDS011;11089;49.852;19.700;2023-02-14T16:28:01;43.22;;;20.63;;
21848;SDS011;11089;49.852;19.700;2023-02-14T16:31:02;44.90;;;21.05;;
21848;SDS011;11089;49.852;19.700;2023-02-14T16:34:12;48.00;;;21.75;;
21848;SDS011;11089;49.852;19.700;2023-02-14T16:40:30;44.25;;;20.50;;
21848;SDS011;11089;49.852;19.700;2023-02-14T16:43:31;43.72;;;20.20;;
21848;SDS011;11089;49.852;19.700;2023-02-14T16:46:34;37.55;;;19.20;;
21848;SDS011;11089;49.852;19.700;2023-02-14T16:49:35;45.22;;;21.20;;
21848;SDS011;11089;49.852;19.700;2023-02-14T16:52:36;49.17;;;21.70;;
21848;SDS011;11089;49.852;19.700;2023-02-14T16:55:38;67.03;;;27.13;;
21848;SDS011;11089;49.852;19.700;2023-02-14T16:58:39;68.78;;;27.23;;
21848;SDS011;11089;49.852;19.700;2023-02-14T17:01:41;56.92;;;24.35;;
21848;SDS011;11089;49.852;19.700;2023-02-14T17:04:42;51.30;;;20.90;;
21848;SDS011;11089;49.852;19.700;2023-02-14T17:07:42;44.42;;;20.75;;
21848;SDS011;11089;49.852;19.700;2023-02-14T17:10:44;46.00;;;21.52;;
21848;SDS011;11089;49.852;19.700;2023-02-14T17:13:47;37.60;;;18.77;;
21848;SDS011;11089;49.852;19.700;2023-02-14T17:16:49;40.78;;;19.63;;
21848;SDS011;11089;49.852;19.700;2023-02-14T17:19:50;43.33;;;20.35;;
21848;SDS011;11089;49.852;19.700;2023-02-14T17:22:52;44.95;;;19.60;;
21848;SDS011;11089;49.852;19.700;2023-02-14T17:25:54;45.00;;;21.52;;
21848;SDS011;11089;49.852;19.700;2023-02-14T17:28:55;42.58;;;19.65;;
21848;SDS011;11089;49.852;19.700;2023-02-14T17:31:56;43.70;;;20.60;;
21848;SDS011;11089;49.852;19.700;2023-02-14T17:34:57;39.15;;;19.70;;
21848;SDS011;11089;49.852;19.700;2023-02-14T17:38:00;39.53;;;19.30;;
21848;SDS011;11089;49.852;19.700;2023-02-14T17:41:13;44.03;;;19.67;;
21848;SDS011;11089;49.852;19.700;2023-02-14T17:44:16;45.92;;;21.00;;
21848;SDS011;11089;49.852;19.700;2023-02-14T17:47:17;40.03;;;18.35;;
21848;SDS011;11089;49.852;19.700;2023-02-14T17:50:19;41.50;;;19.42;;
21848;SDS011;11089;49.852;19.700;2023-02-14T17:53:20;38.75;;;17.92;;
21848;SDS011;11089;49.852;19.700;2023-02-14T17:56:22;42.97;;;20.08;;
21848;SDS011;11089;49.852;19.700;2023-02-14T17:59:24;45.47;;;20.20;;
21848;SDS011;11089;49.852;19.700;2023-02-14T18:02:25;48.10;;;22.35;;
21848;SDS011;11089;49.852;19.700;2023-02-14T18:05:26;49.95;;;22.73;;
21848;SDS011;11089;49.852;19.700;2023-02-14T18:08:28;44.95;;;21.10;;
21848;SDS011;11089;49.852;19.700;2023-02-14T18:11:30;47.05;;;21.90;;
21848;SDS011;11089;49.852;19.700;2023-02-14T18:14:31;61.03;;;25.30;;
21848;SDS011;11089;49.852;19.700;2023-02-14T18:17:33;60.80;;;26.42;;
21848;SDS011;11089;49.852;19.700;2023-02-14T18:20:34;67.32;;;27.85;;
21848;SDS011;11089;49.852;19.700;2023-02-14T18:23:35;57.58;;;26.60;;
21848;SDS011;11089;49.852;19.700;2023-02-14T18:26:37;55.42;;;24.00;;
21848;SDS011;11089;49.852;19.700;2023-02-14T18:29:39;52.47;;;24.45;;
21848;SDS011;11089;49.852;19.700;2023-02-14T18:32:40;57.95;;;24.90;;
21848;SDS011;11089;49.852;19.700;2023-02-14T18:35:42;50.33;;;23.27;;
21848;SDS011;11089;49.852;19.700;2023-02-14T18:38:44;47.85;;;22.73;;
21848;SDS011;11089;49.852;19.700;2023-02-14T18:41:46;49.60;;;21.83;;
21848;SDS011;11089;49.852;19.700;2023-02-14T18:44:47;50.78;;;22.27;;
21848;SDS011;11089;49.852;19.700;2023-02-14T18:47:48;45.28;;;21.10;;
21848;SDS011;11089;49.852;19.700;2023-02-14T18:50:49;44.35;;;20.88;;
21848;SDS011;11089;49.852;19.700;2023-02-14T18:53:50;42.22;;;20.60;;
21848;SDS011;11089;49.852;19.700;2023-02-14T18:56:52;47.08;;;21.63;;
21848;SDS011;11089;49.852;19.700;2023-02-14T18:59:52;47.20;;;21.30;;
21848;SDS011;11089;49.852;19.700;2023-02-14T19:02:53;46.78;;;21.88;;
21848;SDS011;11089;49.852;19.700;2023-02-14T19:05:57;51.78;;;22.02;;
21848;SDS011;11089;49.852;19.700;2023-02-14T19:08:59;51.50;;;23.33;;
21848;SDS011;11089;49.852;19.700;2023-02-14T19:12:02;59.30;;;26.65;;
21848;SDS011;11089;49.852;19.700;2023-02-14T19:15:04;61.88;;;28.75;;
21848;SDS011;11089;49.852;19.700;2023-02-14T19:18:05;67.75;;;29.45;;
21848;SDS011;11089;49.852;19.700;2023-02-14T19:21:07;74.57;;;30.00;;
21848;SDS011;11089;49.852;19.700;2023-02-14T19:24:12;61.08;;;27.02;;
21848;SDS011;11089;49.852;19.700;2023-02-14T19:27:16;89.93;;;33.63;;
21848;SDS011;11089;49.852;19.700;2023-02-14T19:30:17;75.50;;;29.95;;
21848;SDS011;11089;49.852;19.700;2023-02-14T19:33:18;62.75;;;28.63;;
21848;SDS011;11089;49.852;19.700;2023-02-14T19:36:20;61.65;;;27.65;;
21848;SDS011;11089;49.852;19.700;2023-02-14T19:39:22;53.17;;;24.50;;
21848;SDS011;11089;49.852;19.700;2023-02-14T19:42:23;56.92;;;24.38;;
21848;SDS011;11089;49.852;19.700;2023-02-14T19:45:24;57.50;;;25.33;;
21848;SDS011;11089;49.852;19.700;2023-02-14T19:48:26;57.95;;;25.13;;
21848;SDS011;11089;49.852;19.700;2023-02-14T19:51:28;55.45;;;24.70;;
21848;SDS011;11089;49.852;19.700;2023-02-14T19:54:31;57.22;;;24.33;;
21848;SDS011;11089;49.852;19.700;2023-02-14T19:57:36;56.08;;;24.42;;
21848;SDS011;11089;49.852;19.700;2023-02-14T20:00:39;52.90;;;24.23;;
21848;SDS011;11089;49.852;19.700;2023-02-14T20:03:39;55.47;;;24.83;;